Twisp, WA

2:47 PM PDT on March 24, 2017 (GMT -0700)
Homestead Hills | | Change Station

Elev 1936 ft 48.38 °N, 120.11 °W | Updated 49 seconds ago

Overcast
Overcast
37.2 °F
Feels Like 37 °F
N
1.0
Wind Variable Wind from WNW
Gusts 3.0 mph

Today
High -- | Low -- °F
--% Chance of Precip.
Yesterday
High -- | Low -- °F
Precip. -- in
Pressure 29.86 in
Visibility 9.0 miles
Clouds Overcast 700 ft
Windchill 37 °F
Dew Point 36 °F
Humidity 96%
Rainfall 0.40 in
Snow Depth Not available.
6:54 AM 7:19 PM
Waning Crescent, 12% visible
METAR KOMK 242053Z AUTO 00000KT 9SM -RA OVC007 03/00 A2983 RMK AO2 SLP111 P0008 60020 T00280000 56009
Pressure 29.86 in
Visibility 9.0 miles
Clouds Overcast 700 ft
Windchill 37 °F
Dew Point 36 °F
Humidity 96%
Rainfall 0.40 in
Snow Depth Not available.
6:54 AM 7:19 PM
Waning Crescent, 12% visible
METAR KOMK 242053Z AUTO 00000KT 9SM -RA OVC007 03/00 A2983 RMK AO2 SLP111 P0008 60020 T00280000 56009

Get Severe Weather Alerts

Thanks for signing up!

Be on the lookout for a verification email in your inbox.

You'll start receiving the daily forecast at 8 AM.

×

10-Day Weather Forecast

Almanac

Astronomy

Mar. 24, 2017 Rise Set
Actual Time
Civil Twilight
Nautical Twilight
Astronomical Twilight
Moon
Length of Visible Light
Length of Day
Tomorrow will be .
, % of the Moon is Illuminated

Today's Extremes

State Highs State Lows

Community

WunderPhotos

Upload Photos

1,962,540 photos uploaded!

WunderBlog® & News

Nearby

Air Quality

  Air Quality AQ Index Pollutant
Not available.

Snow Depth

Station Depth Elevation

Earthquake Activity

City Distance Mag. Time & Date
Minimum magnitude displayed is 2.5.

Earthquake Activity

City Distance Mag. Time & Date
Minimum magnitude displayed is 2.5.

Coastal Water Temperatures

Place Temperature

Stations

Nearby Weather Stations

Station Location Temp. Windchill Dew Point Humidity Wind Precip. Elev Updated Type
                   

Watches & Warnings

There are currently no watches in effect.